createdAt,value
2023-12-03T00:00:04.747Z,14.00
2023-12-03T00:00:15.794Z,13.90
2023-12-03T00:00:26.233Z,13.90
2023-12-03T00:00:37.155Z,13.70
2023-12-03T00:00:48.029Z,13.30
2023-12-03T00:00:58.991Z,13.10
2023-12-03T00:01:09.857Z,13.40
2023-12-03T00:01:20.756Z,13.70
2023-12-03T00:01:31.659Z,13.70
2023-12-03T00:01:42.565Z,13.90
2023-12-03T00:01:53.498Z,14.00
2023-12-03T00:02:04.384Z,13.90
2023-12-03T00:02:15.241Z,14.10
2023-12-03T00:02:26.118Z,13.80
2023-12-03T00:02:37.014Z,13.90
2023-12-03T00:02:47.890Z,13.60
2023-12-03T00:02:58.798Z,13.30
2023-12-03T00:03:09.698Z,13.30
2023-12-03T00:03:20.582Z,13.80
2023-12-03T00:03:31.547Z,14.10
2023-12-03T00:03:42.533Z,13.90
2023-12-03T00:03:53.429Z,14.10
2023-12-03T00:04:04.379Z,14.10
2023-12-03T00:04:15.439Z,14.00
2023-12-03T00:04:25.852Z,13.90
2023-12-03T00:04:36.812Z,13.90
2023-12-03T00:04:47.716Z,13.50
2023-12-03T00:04:58.590Z,13.10
2023-12-03T00:05:09.471Z,14.00
2023-12-03T00:05:20.367Z,13.80
2023-12-03T00:05:31.277Z,14.30
2023-12-03T00:05:42.161Z,14.20
2023-12-03T00:05:53.111Z,14.10
2023-12-03T00:06:04.020Z,14.10
2023-12-03T00:06:15.013Z,14.00
2023-12-03T00:06:25.551Z,13.90
2023-12-03T00:06:36.311Z,13.50
2023-12-03T00:06:46.701Z,13.60
2023-12-03T00:06:57.737Z,13.50
2023-12-03T00:07:08.213Z,13.20
2023-12-03T00:07:19.193Z,12.90
2023-12-03T00:07:30.164Z,13.30
2023-12-03T00:07:40.932Z,13.60
2023-12-03T00:07:51.390Z,13.30
2023-12-03T00:08:02.249Z,13.60
2023-12-03T00:08:13.182Z,13.90
2023-12-03T00:08:26.561Z,13.90
2023-12-03T00:08:45.420Z,13.50
2023-12-03T00:08:51.710Z,13.80
2023-12-03T00:09:01.541Z,14.50
2023-12-03T00:09:12.487Z,14.20
2023-12-03T00:09:23.363Z,13.50
2023-12-03T00:09:34.069Z,13.90
2023-12-03T00:09:45.017Z,14.00
2023-12-03T00:09:55.893Z,14.00
2023-12-03T00:10:06.778Z,14.10
2023-12-03T00:10:17.661Z,14.10
2023-12-03T00:10:28.556Z,14.30
2023-12-03T00:10:39.429Z,13.80
2023-12-03T00:10:50.307Z,13.20
2023-12-03T00:11:01.195Z,14.10
2023-12-03T00:11:12.073Z,14.70
2023-12-03T00:11:22.964Z,15.30
2023-12-03T00:11:33.842Z,15.10
2023-12-03T00:11:44.714Z,15.40
2023-12-03T00:11:55.605Z,15.40
2023-12-03T00:12:06.496Z,15.00
2023-12-03T00:12:17.419Z,14.80
2023-12-03T00:12:28.347Z,14.50
2023-12-03T00:12:38.954Z,14.20
2023-12-03T00:12:49.874Z,14.00
2023-12-03T00:13:00.714Z,13.80
2023-12-03T00:13:11.597Z,14.10
2023-12-03T00:13:22.493Z,14.50
2023-12-03T00:13:33.375Z,14.10
2023-12-03T00:13:44.024Z,13.70
2023-12-03T00:13:54.920Z,13.70
2023-12-03T00:14:05.784Z,13.70
2023-12-03T00:14:16.672Z,14.10
2023-12-03T00:14:27.571Z,14.30
2023-12-03T00:14:38.521Z,14.90
2023-12-03T00:14:49.357Z,14.80
2023-12-03T00:15:00.505Z,14.70
2023-12-03T00:15:11.002Z,14.10
2023-12-03T00:15:21.463Z,13.60
2023-12-03T00:15:32.335Z,13.80
2023-12-03T00:15:43.251Z,14.00
2023-12-03T00:15:54.110Z,14.50
2023-12-03T00:16:04.987Z,13.70
2023-12-03T00:16:15.873Z,14.30
2023-12-03T00:16:26.756Z,14.60
2023-12-03T00:16:37.639Z,14.40
2023-12-03T00:16:48.535Z,13.90
2023-12-03T00:16:59.474Z,13.50
2023-12-03T00:17:10.399Z,14.30
2023-12-03T00:17:21.288Z,14.20
2023-12-03T00:17:32.231Z,14.10
2023-12-03T00:17:43.203Z,14.20
2023-12-03T00:17:54.218Z,13.80
2023-12-03T00:18:04.727Z,13.80
2023-12-03T00:18:15.343Z,14.30
2023-12-03T00:18:25.891Z,14.60
2023-12-03T00:18:36.392Z,14.30
2023-12-03T00:18:46.869Z,13.80
2023-12-03T00:18:57.829Z,13.30
2023-12-03T00:19:08.774Z,14.10
2023-12-03T00:19:19.705Z,14.30
2023-12-03T00:19:30.579Z,14.50
2023-12-03T00:19:41.070Z,14.40
2023-12-03T00:19:51.963Z,13.80
2023-12-03T00:20:02.858Z,14.00
2023-12-03T00:20:13.742Z,13.90
2023-12-03T00:20:24.670Z,14.30
2023-12-03T00:20:35.554Z,14.70
2023-12-03T00:20:46.447Z,14.70
2023-12-03T00:20:57.327Z,14.60
2023-12-03T00:21:08.317Z,14.30
2023-12-03T00:21:19.329Z,13.90
2023-12-03T00:21:30.196Z,13.90
2023-12-03T00:21:41.141Z,13.90
2023-12-03T00:21:52.057Z,14.20
2023-12-03T00:22:03.030Z,14.40
2023-12-03T00:22:13.912Z,13.80
2023-12-03T00:22:24.793Z,13.50
2023-12-03T00:22:35.700Z,13.40
2023-12-03T00:22:46.557Z,13.90
2023-12-03T00:22:57.450Z,13.80
2023-12-03T00:23:08.346Z,14.00
2023-12-03T00:23:19.248Z,13.80
2023-12-03T00:23:30.126Z,14.60
2023-12-03T00:23:41.000Z,15.10
2023-12-03T00:23:51.885Z,15.20
2023-12-03T00:24:02.776Z,15.40
2023-12-03T00:24:13.748Z,14.90
2023-12-03T00:24:24.609Z,14.50
2023-12-03T00:24:35.538Z,14.40
2023-12-03T00:24:46.423Z,15.00
2023-12-03T00:24:57.297Z,14.90
2023-12-03T00:25:08.194Z,14.90
2023-12-03T00:25:19.065Z,14.50
2023-12-03T00:25:29.958Z,14.30
2023-12-03T00:25:40.843Z,14.80
2023-12-03T00:25:51.730Z,15.20
2023-12-03T00:26:02.647Z,15.10
2023-12-03T00:26:13.531Z,14.60
2023-12-03T00:26:24.419Z,14.60
2023-12-03T00:26:35.332Z,14.70
2023-12-03T00:26:46.221Z,14.50
2023-12-03T00:26:57.169Z,14.30
2023-12-03T00:27:08.033Z,14.20
2023-12-03T00:27:18.964Z,14.50
2023-12-03T00:27:29.870Z,14.70
2023-12-03T00:27:40.821Z,14.60
2023-12-03T00:27:51.757Z,14.50
2023-12-03T00:28:02.626Z,14.80
2023-12-03T00:28:13.508Z,14.80
2023-12-03T00:28:24.398Z,14.90
2023-12-03T00:28:35.286Z,14.30
2023-12-03T00:28:46.173Z,14.50
2023-12-03T00:28:57.093Z,14.80
2023-12-03T00:29:07.963Z,15.10
2023-12-03T00:29:18.873Z,15.00
2023-12-03T00:29:29.750Z,14.90
2023-12-03T00:29:40.613Z,15.10
2023-12-03T00:29:51.551Z,14.80
2023-12-03T00:30:02.478Z,14.70
2023-12-03T00:30:13.343Z,15.10
2023-12-03T00:30:24.247Z,15.50
2023-12-03T00:30:35.113Z,15.60
2023-12-03T00:30:46.009Z,14.80
2023-12-03T00:30:57.787Z,15.10
2023-12-03T00:31:07.623Z,14.80
2023-12-03T00:31:18.485Z,14.50
2023-12-03T00:31:29.394Z,13.70
2023-12-03T00:31:40.290Z,14.10
2023-12-03T00:31:51.185Z,14.50
2023-12-03T00:32:02.069Z,15.30
2023-12-03T00:32:12.978Z,15.10
2023-12-03T00:32:23.939Z,15.20
2023-12-03T00:32:34.802Z,14.80
2023-12-03T00:32:45.745Z,15.20
2023-12-03T00:32:56.653Z,14.90
2023-12-03T00:33:07.654Z,15.20
2023-12-03T00:33:18.561Z,15.30
2023-12-03T00:33:29.458Z,14.80
2023-12-03T00:33:40.355Z,15.60
2023-12-03T00:33:51.367Z,15.90
2023-12-03T00:34:02.321Z,15.70
2023-12-03T00:34:13.232Z,14.80
2023-12-03T00:34:24.119Z,14.40
2023-12-03T00:34:35.040Z,14.60
2023-12-03T00:34:45.994Z,15.10
2023-12-03T00:34:56.419Z,15.30
2023-12-03T00:35:07.303Z,15.20
2023-12-03T00:35:18.200Z,15.60
2023-12-03T00:35:29.071Z,15.30
2023-12-03T00:35:39.954Z,15.50
2023-12-03T00:35:50.836Z,15.30
2023-12-03T00:36:01.736Z,15.30
2023-12-03T00:36:12.662Z,14.80
2023-12-03T00:36:23.556Z,14.70
2023-12-03T00:36:34.500Z,15.10
2023-12-03T00:36:45.034Z,15.20
2023-12-03T00:36:55.903Z,15.40
2023-12-03T00:37:06.812Z,15.40
2023-12-03T00:37:17.704Z,15.50
2023-12-03T00:37:28.596Z,15.60
2023-12-03T00:37:39.546Z,15.20
2023-12-03T00:37:50.427Z,15.10
2023-12-03T00:38:01.300Z,15.20
2023-12-03T00:38:12.202Z,15.40
2023-12-03T00:38:23.083Z,15.40
2023-12-03T00:38:33.961Z,15.30
2023-12-03T00:38:44.871Z,15.50
2023-12-03T00:38:55.757Z,16.00
2023-12-03T00:39:06.638Z,15.80
2023-12-03T00:39:17.552Z,16.00
2023-12-03T00:39:28.431Z,15.70
2023-12-03T00:39:39.188Z,15.80
2023-12-03T00:39:50.117Z,15.60
2023-12-03T00:40:00.974Z,15.80
2023-12-03T00:40:11.880Z,15.70
2023-12-03T00:40:22.761Z,15.20
2023-12-03T00:40:33.659Z,14.70
2023-12-03T00:40:44.539Z,15.00
2023-12-03T00:40:55.426Z,15.10
2023-12-03T00:41:06.334Z,14.80
2023-12-03T00:41:17.199Z,14.40
2023-12-03T00:41:28.098Z,14.50
2023-12-03T00:41:38.971Z,14.90
2023-12-03T00:41:49.872Z,15.30
2023-12-03T00:42:00.774Z,15.20
2023-12-03T00:42:11.669Z,15.40
2023-12-03T00:42:22.587Z,15.60
2023-12-03T00:42:33.486Z,15.80
2023-12-03T00:42:44.412Z,15.90
2023-12-03T00:42:55.321Z,15.80
2023-12-03T00:43:06.196Z,15.60
2023-12-03T00:43:17.093Z,15.20
2023-12-03T00:43:27.979Z,15.40
2023-12-03T00:43:38.881Z,15.50
2023-12-03T00:43:49.777Z,15.80
2023-12-03T00:44:00.691Z,15.70
2023-12-03T00:44:11.553Z,15.50
2023-12-03T00:44:22.427Z,15.60
2023-12-03T00:44:33.315Z,15.70
2023-12-03T00:44:44.215Z,15.70
2023-12-03T00:44:55.087Z,15.80
2023-12-03T00:45:05.980Z,15.30
2023-12-03T00:45:16.894Z,15.00
2023-12-03T00:45:27.792Z,14.50
2023-12-03T00:45:38.734Z,14.70
2023-12-03T00:45:49.615Z,14.40
2023-12-03T00:46:00.475Z,14.60
2023-12-03T00:46:11.375Z,14.70
2023-12-03T00:46:22.262Z,15.90
2023-12-03T00:46:33.133Z,16.40
2023-12-03T00:46:44.015Z,16.30
2023-12-03T00:46:54.890Z,15.70
2023-12-03T00:47:05.830Z,15.30
2023-12-03T00:47:16.681Z,15.50
2023-12-03T00:47:27.688Z,15.50
2023-12-03T00:47:38.609Z,15.40
2023-12-03T00:47:49.490Z,15.40
2023-12-03T00:48:00.483Z,15.60
2023-12-03T00:48:11.034Z,15.20
2023-12-03T00:48:21.592Z,15.10
2023-12-03T00:48:32.094Z,15.40
2023-12-03T00:48:42.580Z,15.40
2023-12-03T00:48:53.477Z,15.70
2023-12-03T00:49:04.425Z,15.50
2023-12-03T00:49:15.445Z,15.50
2023-12-03T00:49:26.494Z,15.40
2023-12-03T00:49:36.971Z,15.70
2023-12-03T00:49:47.911Z,15.20
2023-12-03T00:49:58.800Z,15.10
2023-12-03T00:50:09.666Z,14.90
2023-12-03T00:50:20.566Z,15.90
2023-12-03T00:50:31.455Z,15.40
2023-12-03T00:50:42.344Z,15.40
2023-12-03T00:50:53.243Z,15.90
2023-12-03T00:51:04.135Z,15.70
2023-12-03T00:51:15.060Z,16.00
2023-12-03T00:51:25.981Z,15.70
2023-12-03T00:51:36.888Z,15.90
2023-12-03T00:51:47.767Z,15.70
2023-12-03T00:51:58.652Z,15.60
2023-12-03T00:52:09.521Z,15.90
2023-12-03T00:52:20.396Z,16.00
2023-12-03T00:52:31.277Z,15.90
2023-12-03T00:52:42.170Z,14.90
2023-12-03T00:52:53.065Z,15.10
2023-12-03T00:53:03.943Z,15.30
2023-12-03T00:53:14.828Z,15.70
2023-12-03T00:53:25.703Z,15.90
2023-12-03T00:53:36.609Z,15.80
2023-12-03T00:53:47.522Z,15.80
2023-12-03T00:53:58.409Z,15.90
2023-12-03T00:54:09.307Z,16.30
2023-12-03T00:54:20.174Z,15.80
2023-12-03T00:54:31.066Z,15.80
2023-12-03T00:54:41.962Z,16.20
2023-12-03T00:54:52.864Z,15.70
2023-12-03T00:55:03.729Z,15.90
2023-12-03T00:55:15.357Z,15.90
2023-12-03T00:55:25.523Z,16.20
2023-12-03T00:55:36.315Z,16.00
2023-12-03T00:55:47.177Z,16.00
2023-12-03T00:55:58.049Z,15.90
2023-12-03T00:56:08.935Z,16.20
2023-12-03T00:56:19.834Z,16.10
2023-12-03T00:56:30.719Z,16.00
2023-12-03T00:56:41.600Z,14.90
2023-12-03T00:56:52.486Z,14.70
2023-12-03T00:57:03.386Z,15.70
2023-12-03T00:57:14.334Z,15.90
2023-12-03T00:57:25.181Z,16.20
2023-12-03T00:57:36.191Z,16.10
2023-12-03T00:57:47.113Z,16.60
2023-12-03T00:57:57.997Z,16.40
2023-12-03T00:58:08.894Z,16.40
2023-12-03T00:58:19.771Z,16.20
2023-12-03T00:58:30.659Z,16.00
2023-12-03T00:58:41.546Z,16.00
2023-12-03T00:58:52.466Z,15.90
2023-12-03T00:59:03.378Z,15.50
2023-12-03T00:59:14.244Z,15.30
2023-12-03T00:59:25.135Z,15.50
2023-12-03T00:59:36.118Z,15.60
2023-12-03T00:59:47.001Z,15.30
2023-12-03T00:59:57.885Z,15.70
2023-12-03T01:00:08.824Z,15.60
2023-12-03T01:00:19.720Z,15.70
2023-12-03T01:00:30.624Z,16.10
2023-12-03T01:00:41.165Z,16.20
2023-12-03T01:00:52.097Z,16.90
2023-12-03T01:01:02.997Z,16.70
2023-12-03T01:01:13.888Z,16.70
2023-12-03T01:01:24.831Z,16.20
2023-12-03T01:01:35.739Z,16.40
2023-12-03T01:01:46.627Z,16.50
2023-12-03T01:01:57.516Z,16.40
2023-12-03T01:02:08.378Z,16.90
2023-12-03T01:02:19.260Z,16.80
2023-12-03T01:02:30.148Z,16.00
2023-12-03T01:02:40.785Z,15.70
2023-12-03T01:02:51.674Z,15.60
2023-12-03T01:03:02.579Z,15.90
2023-12-03T01:03:13.513Z,16.10
2023-12-03T01:03:24.391Z,16.30
2023-12-03T01:03:35.345Z,16.50
2023-12-03T01:03:46.255Z,16.80
2023-12-03T01:03:57.101Z,16.10
2023-12-03T01:04:08.035Z,15.90
2023-12-03T01:04:18.964Z,16.20
2023-12-03T01:04:29.869Z,16.30
2023-12-03T01:04:40.813Z,16.30
2023-12-03T01:04:51.760Z,16.10
2023-12-03T01:05:02.781Z,16.20
2023-12-03T01:05:13.219Z,16.60
2023-12-03T01:05:24.170Z,16.30
2023-12-03T01:05:35.051Z,15.80
2023-12-03T01:05:45.981Z,15.40
2023-12-03T01:05:56.826Z,15.90
2023-12-03T01:06:07.886Z,16.30
2023-12-03T01:06:18.262Z,16.00
2023-12-03T01:06:29.191Z,16.20
2023-12-03T01:06:40.043Z,16.40
2023-12-03T01:06:50.945Z,16.90
2023-12-03T01:07:01.795Z,16.30
2023-12-03T01:07:12.692Z,16.30
2023-12-03T01:07:23.564Z,16.60
2023-12-03T01:07:34.414Z,16.40
2023-12-03T01:07:45.271Z,15.80
2023-12-03T01:07:56.217Z,15.80
2023-12-03T01:08:07.056Z,16.30
2023-12-03T01:08:17.947Z,16.60
2023-12-03T01:08:28.915Z,16.70
2023-12-03T01:08:39.781Z,16.40
2023-12-03T01:08:50.688Z,15.70
2023-12-03T01:09:01.579Z,15.60
2023-12-03T01:09:12.537Z,15.80
2023-12-03T01:09:23.383Z,16.20
2023-12-03T01:09:34.039Z,16.00
2023-12-03T01:09:44.904Z,15.80
2023-12-03T01:09:55.828Z,16.10
2023-12-03T01:10:06.703Z,17.10
2023-12-03T01:10:17.587Z,17.70
2023-12-03T01:10:28.499Z,17.10
2023-12-03T01:10:39.365Z,16.50
2023-12-03T01:10:50.253Z,16.70
2023-12-03T01:11:01.161Z,16.90
2023-12-03T01:11:12.059Z,16.80
2023-12-03T01:11:34.861Z,16.50
2023-12-03T01:11:36.987Z,16.90
2023-12-03T01:11:46.364Z,16.60
2023-12-03T01:11:57.229Z,16.40
2023-12-03T01:12:08.182Z,16.30
2023-12-03T01:12:19.046Z,16.50
2023-12-03T01:12:29.970Z,16.80
2023-12-03T01:12:40.963Z,16.60
2023-12-03T01:12:51.479Z,16.50
2023-12-03T01:13:01.994Z,16.30
2023-12-03T01:13:12.908Z,16.50
2023-12-03T01:13:23.776Z,16.70
2023-12-03T01:13:34.714Z,17.50
2023-12-03T01:13:45.647Z,17.30
2023-12-03T01:13:56.484Z,17.40
2023-12-03T01:14:07.522Z,17.40
2023-12-03T01:14:18.356Z,16.90
2023-12-03T01:14:29.260Z,17.50
2023-12-03T01:14:40.230Z,17.40
2023-12-03T01:14:51.081Z,17.30
2023-12-03T01:15:01.970Z,16.70
2023-12-03T01:15:12.895Z,16.90
2023-12-03T01:15:23.759Z,16.30
2023-12-03T01:15:34.648Z,17.00
2023-12-03T01:15:45.554Z,16.70
2023-12-03T01:15:56.438Z,16.60
2023-12-03T01:16:07.316Z,15.90
2023-12-03T01:16:18.204Z,16.80
2023-12-03T01:16:29.095Z,17.00
2023-12-03T01:16:39.979Z,16.70
2023-12-03T01:16:50.866Z,16.40
2023-12-03T01:17:01.737Z,17.00
2023-12-03T01:17:12.622Z,17.30
2023-12-03T01:17:23.515Z,18.00
2023-12-03T01:17:34.474Z,18.20
2023-12-03T01:17:45.388Z,18.50
2023-12-03T01:17:56.301Z,18.00
2023-12-03T01:18:07.300Z,18.00
2023-12-03T01:18:17.781Z,17.70
2023-12-03T01:18:28.673Z,17.60
2023-12-03T01:18:39.714Z,17.60
2023-12-03T01:18:50.688Z,17.30
2023-12-03T01:19:01.824Z,17.30
2023-12-03T01:19:12.441Z,16.60
2023-12-03T01:19:23.478Z,16.60
2023-12-03T01:19:34.169Z,16.40
2023-12-03T01:19:45.156Z,16.90
2023-12-03T01:19:55.534Z,18.00
2023-12-03T01:20:06.410Z,18.20
2023-12-03T01:20:17.289Z,17.70
2023-12-03T01:20:28.175Z,16.60
2023-12-03T01:20:38.736Z,16.70
2023-12-03T01:20:49.616Z,17.30
2023-12-03T01:21:00.500Z,18.20
2023-12-03T01:21:11.416Z,17.90
2023-12-03T01:21:22.274Z,18.00
2023-12-03T01:21:33.264Z,17.20
2023-12-03T01:21:44.143Z,17.10
2023-12-03T01:21:55.121Z,17.20
2023-12-03T01:22:06.023Z,17.50
2023-12-03T01:22:16.883Z,17.10
2023-12-03T01:22:27.771Z,16.40
2023-12-03T01:22:38.671Z,16.50
2023-12-03T01:22:49.546Z,16.70
2023-12-03T01:23:00.433Z,16.50
2023-12-03T01:23:11.434Z,17.00
2023-12-03T01:23:22.284Z,17.20
2023-12-03T01:23:33.154Z,17.70
2023-12-03T01:23:44.032Z,17.00
2023-12-03T01:23:54.935Z,17.50
2023-12-03T01:24:05.818Z,17.90
2023-12-03T01:24:16.779Z,17.40
2023-12-03T01:24:27.674Z,18.00
2023-12-03T01:24:38.553Z,17.10
2023-12-03T01:24:49.512Z,17.30
2023-12-03T01:25:00.348Z,17.00
2023-12-03T01:25:11.338Z,17.70
2023-12-03T01:25:22.173Z,18.20
2023-12-03T01:25:33.064Z,18.00
2023-12-03T01:25:43.955Z,17.90
2023-12-03T01:25:54.842Z,17.90
2023-12-03T01:26:05.724Z,18.00
2023-12-03T01:26:16.621Z,18.50
2023-12-03T01:26:27.489Z,18.20
2023-12-03T01:26:38.413Z,18.20
2023-12-03T01:26:49.290Z,17.90
2023-12-03T01:27:00.207Z,18.50
2023-12-03T01:27:11.116Z,18.20
2023-12-03T01:27:21.984Z,18.10
2023-12-03T01:27:32.909Z,18.60
2023-12-03T01:27:43.820Z,18.60
2023-12-03T01:27:54.796Z,17.20
2023-12-03T01:28:05.611Z,17.20
2023-12-03T01:28:16.523Z,17.60
2023-12-03T01:28:27.391Z,18.00
2023-12-03T01:28:38.145Z,17.50
2023-12-03T01:28:49.024Z,17.70
2023-12-03T01:28:59.908Z,18.30
2023-12-03T01:29:10.837Z,18.40
2023-12-03T01:29:21.688Z,18.00
2023-12-03T01:29:32.578Z,17.60
2023-12-03T01:29:43.465Z,17.50
2023-12-03T01:29:54.397Z,17.90
2023-12-03T01:30:05.275Z,18.30
2023-12-03T01:30:16.201Z,18.40
2023-12-03T01:30:27.082Z,19.40
2023-12-03T01:30:38.061Z,19.10
2023-12-03T01:30:49.034Z,18.70
2023-12-03T01:30:59.877Z,17.90
2023-12-03T01:31:10.770Z,18.20
2023-12-03T01:31:21.663Z,17.70
2023-12-03T01:31:32.523Z,18.40
2023-12-03T01:31:43.410Z,18.30
2023-12-03T01:31:54.306Z,18.00
2023-12-03T01:32:05.203Z,17.60
2023-12-03T01:32:16.102Z,17.60
2023-12-03T01:32:27.021Z,18.20
2023-12-03T01:32:37.973Z,18.10
2023-12-03T01:32:48.924Z,17.80
2023-12-03T01:32:59.808Z,17.10
2023-12-03T01:33:10.743Z,17.70
2023-12-03T01:33:21.731Z,18.20
2023-12-03T01:33:32.161Z,18.60
2023-12-03T01:33:43.003Z,17.90
2023-12-03T01:33:53.581Z,17.50
2023-12-03T01:34:04.158Z,17.20
2023-12-03T01:34:14.586Z,17.80
2023-12-03T01:34:25.480Z,18.40
2023-12-03T01:34:36.330Z,18.10
2023-12-03T01:34:47.306Z,17.60
2023-12-03T01:34:58.217Z,17.70
2023-12-03T01:35:09.099Z,17.50
2023-12-03T01:35:19.987Z,17.30
2023-12-03T01:35:30.899Z,17.50
2023-12-03T01:35:41.402Z,18.20
2023-12-03T01:35:52.299Z,17.90
2023-12-03T01:36:03.181Z,17.50
2023-12-03T01:36:14.092Z,17.50
2023-12-03T01:36:25.006Z,18.10
2023-12-03T01:36:35.611Z,18.10
2023-12-03T01:36:46.523Z,18.20
2023-12-03T01:36:57.396Z,17.90
2023-12-03T01:37:08.328Z,18.20
2023-12-03T01:37:19.165Z,17.70
2023-12-03T01:37:30.077Z,18.40
2023-12-03T01:37:40.966Z,17.90
2023-12-03T01:37:51.862Z,17.80
2023-12-03T01:38:02.743Z,17.90
2023-12-03T01:38:13.634Z,17.90
2023-12-03T01:38:24.541Z,17.80
2023-12-03T01:38:35.426Z,17.70
2023-12-03T01:38:46.313Z,17.90
2023-12-03T01:38:57.204Z,17.90
2023-12-03T01:39:08.138Z,18.40
2023-12-03T01:39:19.080Z,19.00
2023-12-03T01:39:29.956Z,19.20
2023-12-03T01:39:40.886Z,18.40
2023-12-03T01:39:51.789Z,17.70
2023-12-03T01:40:02.688Z,17.80
2023-12-03T01:40:13.579Z,18.50
2023-12-03T01:40:24.461Z,18.60
2023-12-03T01:40:35.351Z,18.00
2023-12-03T01:40:46.226Z,17.30
2023-12-03T01:40:57.116Z,17.40
2023-12-03T01:41:08.000Z,17.50
2023-12-03T01:41:18.890Z,17.90
2023-12-03T01:41:31.100Z,17.20
2023-12-03T01:41:40.573Z,16.80
2023-12-03T01:41:51.454Z,16.50
2023-12-03T01:42:02.349Z,16.90
2023-12-03T01:42:13.258Z,17.10
2023-12-03T01:42:24.124Z,17.50
2023-12-03T01:42:35.014Z,17.40
2023-12-03T01:42:45.918Z,17.40
2023-12-03T01:42:56.782Z,17.40
2023-12-03T01:43:07.664Z,17.30
2023-12-03T01:43:18.552Z,17.20
2023-12-03T01:43:29.446Z,17.60
2023-12-03T01:43:40.322Z,18.40
2023-12-03T01:43:51.238Z,18.90
2023-12-03T01:44:02.156Z,18.20
2023-12-03T01:44:13.004Z,17.50
2023-12-03T01:44:23.867Z,17.30
2023-12-03T01:44:34.754Z,17.10
2023-12-03T01:44:45.647Z,16.90
2023-12-03T01:44:56.526Z,17.00
2023-12-03T01:45:07.440Z,17.30
2023-12-03T01:45:18.347Z,17.80
2023-12-03T01:45:29.232Z,18.40
2023-12-03T01:45:40.149Z,18.50
2023-12-03T01:45:51.022Z,18.20
2023-12-03T01:46:01.879Z,17.60
2023-12-03T01:46:12.772Z,17.10
2023-12-03T01:46:23.699Z,17.60
2023-12-03T01:46:34.536Z,18.20
2023-12-03T01:46:45.422Z,18.20
2023-12-03T01:46:56.318Z,18.20
2023-12-03T01:47:07.196Z,17.70
2023-12-03T01:47:18.114Z,17.50
2023-12-03T01:47:28.993Z,17.10
2023-12-03T01:47:39.947Z,17.30
2023-12-03T01:47:50.820Z,17.10
2023-12-03T01:48:01.859Z,17.30
2023-12-03T01:48:12.357Z,17.60
2023-12-03T01:48:22.977Z,18.20
2023-12-03T01:48:33.698Z,18.30
2023-12-03T01:48:44.664Z,18.30
2023-12-03T01:48:55.634Z,17.80
2023-12-03T01:49:06.669Z,17.70
2023-12-03T01:49:17.144Z,17.70
2023-12-03T01:49:28.116Z,17.70
2023-12-03T01:49:38.959Z,17.70
2023-12-03T01:49:49.789Z,17.60
2023-12-03T01:50:00.698Z,18.40
2023-12-03T01:50:11.556Z,17.80
2023-12-03T01:50:22.445Z,17.40
2023-12-03T01:50:33.347Z,16.50
2023-12-03T01:50:44.206Z,16.80
2023-12-03T01:50:55.116Z,17.70
2023-12-03T01:51:05.998Z,17.90
2023-12-03T01:51:16.908Z,17.90
2023-12-03T01:51:27.824Z,17.20
2023-12-03T01:51:38.724Z,17.30
2023-12-03T01:51:49.636Z,17.80
2023-12-03T01:52:00.527Z,18.70
2023-12-03T01:52:11.480Z,18.90
2023-12-03T01:52:22.295Z,18.80
2023-12-03T01:52:33.190Z,18.40
2023-12-03T01:52:44.074Z,18.10
2023-12-03T01:52:54.973Z,18.20
2023-12-03T01:53:05.852Z,18.60
2023-12-03T01:53:16.746Z,18.80
2023-12-03T01:53:27.634Z,18.50
2023-12-03T01:53:38.519Z,18.40
2023-12-03T01:53:49.410Z,17.70
2023-12-03T01:54:00.291Z,17.90
2023-12-03T01:54:11.210Z,17.90
2023-12-03T01:54:22.122Z,17.90
2023-12-03T01:54:32.981Z,18.20
2023-12-03T01:54:43.865Z,18.20
2023-12-03T01:54:54.759Z,18.60
2023-12-03T01:55:05.621Z,18.70
2023-12-03T01:55:16.544Z,18.50
2023-12-03T01:55:27.428Z,18.20
2023-12-03T01:55:38.304Z,17.80
2023-12-03T01:55:49.193Z,18.00
2023-12-03T01:56:00.074Z,18.30
2023-12-03T01:56:10.951Z,18.90
2023-12-03T01:56:21.841Z,18.30
2023-12-03T01:56:32.734Z,18.20
2023-12-03T01:56:43.622Z,18.50
2023-12-03T01:56:54.504Z,18.50
2023-12-03T01:57:05.390Z,18.50
2023-12-03T01:57:16.387Z,18.10
2023-12-03T01:57:27.255Z,17.80
2023-12-03T01:57:38.140Z,17.50
2023-12-03T01:57:49.033Z,18.30
2023-12-03T01:57:59.874Z,18.30
2023-12-03T01:58:10.800Z,18.80
2023-12-03T01:58:21.666Z,18.60
2023-12-03T01:58:32.586Z,18.80
2023-12-03T01:58:43.484Z,18.70
2023-12-03T01:58:54.364Z,18.40
2023-12-03T01:59:05.264Z,18.20
2023-12-03T01:59:16.175Z,17.80
2023-12-03T01:59:27.028Z,17.70
2023-12-03T01:59:37.925Z,17.50
2023-12-03T01:59:48.807Z,17.40
2023-12-03T01:59:59.749Z,17.50
2023-12-03T02:00:10.633Z,18.00
2023-12-03T02:00:21.566Z,18.30
2023-12-03T02:00:32.444Z,17.80
2023-12-03T02:00:43.338Z,17.50
2023-12-03T02:00:54.216Z,17.60
2023-12-03T02:01:05.104Z,17.90
2023-12-03T02:01:15.979Z,18.50
2023-12-03T02:01:26.865Z,18.90
2023-12-03T02:01:37.809Z,17.90
2023-12-03T02:01:48.667Z,17.50
2023-12-03T02:01:59.563Z,17.00
2023-12-03T02:02:10.442Z,18.00
2023-12-03T02:02:21.295Z,18.50
2023-12-03T02:02:32.179Z,18.90
2023-12-03T02:02:43.054Z,18.20
2023-12-03T02:02:53.944Z,18.00
2023-12-03T02:03:04.838Z,18.00
2023-12-03T02:03:15.824Z,17.40
2023-12-03T02:03:26.688Z,17.80
2023-12-03T02:03:37.633Z,17.90
2023-12-03T02:03:48.545Z,18.50
2023-12-03T02:03:59.475Z,17.90
2023-12-03T02:04:10.330Z,18.20
2023-12-03T02:04:21.229Z,18.10
2023-12-03T02:04:32.130Z,17.70
2023-12-03T02:04:43.117Z,17.70
2023-12-03T02:04:53.630Z,17.30
2023-12-03T02:05:04.158Z,16.90
2023-12-03T02:05:15.060Z,17.00
2023-12-03T02:05:25.979Z,17.40
2023-12-03T02:05:36.926Z,17.50
2023-12-03T02:05:47.865Z,18.00
2023-12-03T02:05:58.770Z,17.90
2023-12-03T02:06:10.310Z,18.30
2023-12-03T02:06:20.564Z,18.40
2023-12-03T02:06:31.013Z,18.00
2023-12-03T02:06:41.943Z,18.20
2023-12-03T02:06:52.858Z,18.30
2023-12-03T02:07:03.726Z,18.30
2023-12-03T02:07:14.714Z,18.00
2023-12-03T02:07:25.120Z,18.20
2023-12-03T02:07:36.008Z,18.30
2023-12-03T02:07:46.890Z,19.20
2023-12-03T02:07:57.772Z,18.50
2023-12-03T02:08:08.650Z,17.90
2023-12-03T02:08:19.630Z,17.50
2023-12-03T02:08:30.538Z,17.50
2023-12-03T02:08:41.366Z,17.70
2023-12-03T02:08:52.241Z,18.40
2023-12-03T02:09:03.131Z,18.90
2023-12-03T02:09:14.058Z,18.50
2023-12-03T02:09:24.938Z,17.90
2023-12-03T02:09:35.828Z,17.80
2023-12-03T02:09:46.787Z,18.10
2023-12-03T02:09:57.631Z,18.20
2023-12-03T02:10:08.530Z,17.60
2023-12-03T02:10:19.397Z,17.90
2023-12-03T02:10:30.287Z,18.20
2023-12-03T02:10:41.174Z,18.20
2023-12-03T02:10:52.068Z,18.20
2023-12-03T02:11:02.949Z,18.00
2023-12-03T02:11:13.839Z,18.50
2023-12-03T02:11:24.706Z,18.70
2023-12-03T02:11:35.595Z,18.70
2023-12-03T02:11:46.517Z,18.30
2023-12-03T02:11:57.366Z,19.20
2023-12-03T02:12:08.276Z,19.20
2023-12-03T02:12:19.229Z,19.00
2023-12-03T02:12:30.141Z,18.10
2023-12-03T02:12:40.984Z,17.70
2023-12-03T02:12:51.978Z,17.70
2023-12-03T02:13:02.840Z,18.00
2023-12-03T02:13:13.740Z,18.00
2023-12-03T02:13:24.652Z,18.80
2023-12-03T02:13:35.536Z,19.30
2023-12-03T02:13:46.438Z,19.40
2023-12-03T02:13:57.300Z,18.60
2023-12-03T02:14:08.190Z,18.40
2023-12-03T02:14:19.100Z,18.40
2023-12-03T02:14:29.964Z,17.90
2023-12-03T02:14:40.850Z,18.20
2023-12-03T02:14:51.726Z,18.60
2023-12-03T02:15:02.608Z,19.00
2023-12-03T02:15:13.572Z,18.50
2023-12-03T02:15:24.476Z,18.50
2023-12-03T02:15:35.408Z,18.10
2023-12-03T02:15:46.279Z,18.40
2023-12-03T02:15:57.119Z,18.40
2023-12-03T02:16:08.002Z,19.10
2023-12-03T02:16:18.898Z,19.40
2023-12-03T02:16:29.781Z,19.20
2023-12-03T02:16:40.692Z,18.80
2023-12-03T02:16:51.575Z,18.30
2023-12-03T02:17:02.468Z,18.30
2023-12-03T02:17:13.352Z,19.30
2023-12-03T02:17:24.232Z,19.30
2023-12-03T02:17:35.138Z,19.30
2023-12-03T02:17:46.039Z,19.10
2023-12-03T02:17:56.722Z,18.70
2023-12-03T02:18:07.612Z,18.40
2023-12-03T02:18:18.543Z,17.80
2023-12-03T02:18:29.461Z,17.80
2023-12-03T02:18:40.489Z,17.70
2023-12-03T02:18:50.988Z,18.20
2023-12-03T02:19:01.944Z,18.80
2023-12-03T02:19:12.910Z,19.30
2023-12-03T02:19:23.854Z,19.00
2023-12-03T02:19:34.756Z,18.80
2023-12-03T02:19:45.641Z,18.90
2023-12-03T02:19:56.531Z,18.80
2023-12-03T02:20:07.407Z,19.20